Terminal Aerodrome Forecast
Issued by NWS Buffalo, NY

Home | Current Version | Previous Version | Text Only | Print | Product List | Glossary On
Versions: 1 2 3 4 5 6 7 8 9 10 11 12 13 14 15 16 17 18 19 20 21 22 23 24 25 26 27 28
593
FTUS41 KBUF 231508 AAB
TAFART
TAF AMD
KART 231508Z 2315/2412 23005KT P6SM VCSH BKN008
     FM231800 23010KT P6SM -SHRA BKN025
     FM232300 23014KT P6SM VCTS OVC030CB
     FM240100 23012KT P6SM VCSH OVC030
     FM240400 24010KT P6SM BKN035
     FM241000 23004KT P6SM SCT050=

USA.gov is the U.S. government's official web portal to all federal, state and local government web resources and services.